Newbury, New Hampshire
Current Conditions -  °F | °C
As of 3:54 PM on Thursday 25 Dec 2014 (Local Time) from KVSF Reporting Station
Scattered Clouds Scattered Clouds  
Wind Chill: 35°   Ceiling: Unl
Heat Index: 44°   Visibility: 10mi
Dew Point: 28°   Wind: 25mph
Humidity: 53%   Direction: 270°W
Pressure: 29.7"   Gusts: 35mph
Location:  43.32°N, 72.04°W
Report Text: KVSF 252054Z AUTO 27022G30KT 10SM SCT055 07/M02 A2970 RMK AO2 PK WND 28031/2035 SLP061 T00671022 51035 TSNO
Loading
Personal Weather Stations






























Interactive Weather Map New forecast layout! Learn more

10-Day Weather Forecast

Advertisements
Track Severe Weather on mobile